Terminal Aerodrome Forecast
Issued by NWS

Home | Current Version | Previous Version | Text Only | Print | Product List | Glossary On
Versions: 1 2 3 4 5 6 7 8 9 10 11 12 13 14 15 16 17 18 19 20 21 22 23 24 25 26 27
000
FTUS43 KICT 211420 AAB
TAFHUT
TAF AMD
KHUT 211420Z 2114/2212 08007KT P6SM OVC006
     FM211600 12007KT 2SM -DZ BR SCT004 OVC006
     FM220300 VRB03KT 1/2SM FG OVC004=

USA.gov is the U.S. government's official web portal to all federal, state and local government web resources and services.